SANE/SDE METAR and TAF weather

Enter ICAO airport designator
Station Type Date Time Source
SANE METAR 2019/09/19 16:50 UTC NOAA

SANE 191650Z 16015G37KT 1500 DU NSC 28/05 Q1005


Station Type Date Time Source
SANE Decoded METAR 2019/09/19 16:50 UTC NOAA

Santiago Del Estero Aero., Argentina (SANE) 27-46S 064-18W 199M
Sep 19, 2019 - 12:50 PM EDT / 2019.09.19 1650 UTC
Wind: from the SSE (160 degrees) at 17 MPH (15 KT) gusting to 43 MPH (37 KT):0
Visibility: less than 1 mile:0
Weather: widespread dust
Temperature: 82 F (28 C)
Dew Point: 41 F (5 C)
Relative Humidity: 23%
Pressure (altimeter): 29.68 in. Hg (1005 hPa)
ob: SANE 191650Z 16015G37KT 1500 DU NSC 28/05 Q1005
cycle: 17

Station Type Date Time Source
SANE TAF 2019/09/16 00:06 UTC NOAA

TAF TAF SANE 162300Z 1700/1724 20010KT 9999 BKN020 OVC030 TX24/1718Z TN13/1710Z
BECMG 1712/1715 18005KT 9999 SCT030

Example: see airport list